Terminal Aerodrome Forecast
Issued by NWS

Home | Current Version | Previous Version | Text Only | Print | Product List | Glossary On
Versions: 1 2 3 4 5 6 7 8 9 10 11 12 13 14 15 16 17
000
FTUS44 KBMX 032300
TAFTCL
TAF
KTCL 032338Z 0400/0424 19004KT P6SM OVC050
     FM040300 19006KT P6SM OVC015
     FM040800 18005KT 3SM BR OVC008
     FM041800 21009KT P6SM OVC015
     FM042000 20009G16KT P6SM OVC050=

USA.gov is the U.S. government's official web portal to all federal, state and local government web resources and services.